sensor_id;sensor_type;location;lat;lon;timestamp;temperature;humidity
52030;DHT22;38043;53.224;6.580;2023-12-07T00:00:38;2.70;99.90
52030;DHT22;38043;53.224;6.580;2023-12-07T00:03:04;2.70;99.90
52030;DHT22;38043;53.224;6.580;2023-12-07T00:05:32;2.70;99.90
52030;DHT22;38043;53.224;6.580;2023-12-07T00:07:58;2.70;99.90
52030;DHT22;38043;53.224;6.580;2023-12-07T00:10:24;2.70;99.90
52030;DHT22;38043;53.224;6.580;2023-12-07T00:12:50;2.70;99.90
52030;DHT22;38043;53.224;6.580;2023-12-07T00:15:15;2.70;99.90
52030;DHT22;38043;53.224;6.580;2023-12-07T00:17:41;2.70;99.90
52030;DHT22;38043;53.224;6.580;2023-12-07T00:20:07;2.70;99.90
52030;DHT22;38043;53.224;6.580;2023-12-07T00:22:33;2.70;99.90
52030;DHT22;38043;53.224;6.580;2023-12-07T00:24:59;2.70;99.90
52030;DHT22;38043;53.224;6.580;2023-12-07T00:27:24;2.70;99.90
52030;DHT22;38043;53.224;6.580;2023-12-07T00:29:50;2.70;99.90
52030;DHT22;38043;53.224;6.580;2023-12-07T00:32:16;2.70;99.90
52030;DHT22;38043;53.224;6.580;2023-12-07T00:34:43;2.70;99.90
52030;DHT22;38043;53.224;6.580;2023-12-07T00:37:08;2.70;99.90
52030;DHT22;38043;53.224;6.580;2023-12-07T00:39:35;2.70;99.90
52030;DHT22;38043;53.224;6.580;2023-12-07T00:42:01;2.80;99.90
52030;DHT22;38043;53.224;6.580;2023-12-07T00:44:30;2.70;99.90
52030;DHT22;38043;53.224;6.580;2023-12-07T00:46:59;2.70;99.90
52030;DHT22;38043;53.224;6.580;2023-12-07T00:49:25;2.70;99.90
52030;DHT22;38043;53.224;6.580;2023-12-07T00:51:51;2.60;99.90
52030;DHT22;38043;53.224;6.580;2023-12-07T00:54:16;2.70;99.90
52030;DHT22;38043;53.224;6.580;2023-12-07T00:56:42;2.70;99.90
52030;DHT22;38043;53.224;6.580;2023-12-07T00:59:08;2.70;99.90
52030;DHT22;38043;53.224;6.580;2023-12-07T01:01:35;3.20;99.90
52030;DHT22;38043;53.224;6.580;2023-12-07T01:04:04;4.50;99.90
52030;DHT22;38043;53.224;6.580;2023-12-07T01:06:31;2.70;99.90
52030;DHT22;38043;53.224;6.580;2023-12-07T01:08:57;4.00;99.90
52030;DHT22;38043;53.224;6.580;2023-12-07T01:11:22;2.60;99.90
52030;DHT22;38043;53.224;6.580;2023-12-07T01:13:48;2.50;99.90
52030;DHT22;38043;53.224;6.580;2023-12-07T01:16:14;3.20;99.90
52030;DHT22;38043;53.224;6.580;2023-12-07T01:18:40;2.60;99.90
52030;DHT22;38043;53.224;6.580;2023-12-07T01:21:06;2.60;99.90
52030;DHT22;38043;53.224;6.580;2023-12-07T01:23:37;2.60;99.90
52030;DHT22;38043;53.224;6.580;2023-12-07T01:26:03;2.60;99.90
52030;DHT22;38043;53.224;6.580;2023-12-07T01:28:29;2.60;99.90
52030;DHT22;38043;53.224;6.580;2023-12-07T01:30:54;3.40;99.90
52030;DHT22;38043;53.224;6.580;2023-12-07T01:33:20;3.20;99.90
52030;DHT22;38043;53.224;6.580;2023-12-07T01:35:47;2.60;99.90
52030;DHT22;38043;53.224;6.580;2023-12-07T01:38:12;2.60;99.90
52030;DHT22;38043;53.224;6.580;2023-12-07T01:40:38;2.60;99.90
52030;DHT22;38043;53.224;6.580;2023-12-07T01:43:04;2.60;99.90
52030;DHT22;38043;53.224;6.580;2023-12-07T01:45:29;2.60;99.90
52030;DHT22;38043;53.224;6.580;2023-12-07T01:47:55;2.60;99.90
52030;DHT22;38043;53.224;6.580;2023-12-07T01:50:28;2.60;99.90
52030;DHT22;38043;53.224;6.580;2023-12-07T01:53:05;2.50;99.90
52030;DHT22;38043;53.224;6.580;2023-12-07T01:55:32;2.50;99.90
52030;DHT22;38043;53.224;6.580;2023-12-07T01:57:58;2.50;99.90
52030;DHT22;38043;53.224;6.580;2023-12-07T02:00:26;2.50;99.90
52030;DHT22;38043;53.224;6.580;2023-12-07T02:02:53;2.50;99.90
52030;DHT22;38043;53.224;6.580;2023-12-07T02:05:20;2.60;99.90
52030;DHT22;38043;53.224;6.580;2023-12-07T02:07:46;2.50;99.90
52030;DHT22;38043;53.224;6.580;2023-12-07T02:10:12;2.50;99.90
52030;DHT22;38043;53.224;6.580;2023-12-07T02:12:42;2.50;99.90
52030;DHT22;38043;53.224;6.580;2023-12-07T02:15:12;2.50;99.90
52030;DHT22;38043;53.224;6.580;2023-12-07T02:18:05;2.50;99.90
52030;DHT22;38043;53.224;6.580;2023-12-07T02:20:50;2.40;99.90
52030;DHT22;38043;53.224;6.580;2023-12-07T02:23:18;2.50;99.90
52030;DHT22;38043;53.224;6.580;2023-12-07T02:25:51;2.40;99.90
52030;DHT22;38043;53.224;6.580;2023-12-07T02:28:18;2.40;99.90
52030;DHT22;38043;53.224;6.580;2023-12-07T02:30:44;2.40;99.90
52030;DHT22;38043;53.224;6.580;2023-12-07T02:33:11;2.40;99.90
52030;DHT22;38043;53.224;6.580;2023-12-07T02:35:38;2.40;99.90
52030;DHT22;38043;53.224;6.580;2023-12-07T02:38:05;2.40;99.90
52030;DHT22;38043;53.224;6.580;2023-12-07T02:40:32;2.40;99.90
52030;DHT22;38043;53.224;6.580;2023-12-07T02:42:59;2.40;99.90
52030;DHT22;38043;53.224;6.580;2023-12-07T02:45:29;2.50;99.90
52030;DHT22;38043;53.224;6.580;2023-12-07T02:47:57;2.40;99.90
52030;DHT22;38043;53.224;6.580;2023-12-07T02:50:23;2.40;99.90
52030;DHT22;38043;53.224;6.580;2023-12-07T02:52:49;2.40;99.90
52030;DHT22;38043;53.224;6.580;2023-12-07T02:55:16;2.40;99.90
52030;DHT22;38043;53.224;6.580;2023-12-07T02:57:42;2.40;99.90
52030;DHT22;38043;53.224;6.580;2023-12-07T03:00:10;2.50;99.90
52030;DHT22;38043;53.224;6.580;2023-12-07T03:02:39;2.50;99.90
52030;DHT22;38043;53.224;6.580;2023-12-07T03:05:06;2.50;99.90
52030;DHT22;38043;53.224;6.580;2023-12-07T03:07:33;2.50;99.90
52030;DHT22;38043;53.224;6.580;2023-12-07T03:10:02;2.50;99.90
52030;DHT22;38043;53.224;6.580;2023-12-07T03:12:28;2.50;99.90
52030;DHT22;38043;53.224;6.580;2023-12-07T03:14:54;2.50;99.90
52030;DHT22;38043;53.224;6.580;2023-12-07T03:17:19;2.50;99.90
52030;DHT22;38043;53.224;6.580;2023-12-07T03:19:45;2.50;99.90
52030;DHT22;38043;53.224;6.580;2023-12-07T03:22:11;2.60;99.90
52030;DHT22;38043;53.224;6.580;2023-12-07T03:24:40;2.50;99.90
52030;DHT22;38043;53.224;6.580;2023-12-07T03:27:05;2.60;99.90
52030;DHT22;38043;53.224;6.580;2023-12-07T03:29:32;2.50;99.90
52030;DHT22;38043;53.224;6.580;2023-12-07T03:32:01;2.50;99.90
52030;DHT22;38043;53.224;6.580;2023-12-07T03:34:27;2.50;99.90
52030;DHT22;38043;53.224;6.580;2023-12-07T03:36:52;2.50;99.90
52030;DHT22;38043;53.224;6.580;2023-12-07T03:39:18;2.50;99.90
52030;DHT22;38043;53.224;6.580;2023-12-07T03:41:44;1.40;99.90
52030;DHT22;38043;53.224;6.580;2023-12-07T03:44:10;2.70;99.90
52030;DHT22;38043;53.224;6.580;2023-12-07T03:46:36;2.50;99.90
52030;DHT22;38043;53.224;6.580;2023-12-07T03:49:02;2.50;99.90
52030;DHT22;38043;53.224;6.580;2023-12-07T03:51:28;2.50;99.90
52030;DHT22;38043;53.224;6.580;2023-12-07T03:53:54;2.60;99.90
52030;DHT22;38043;53.224;6.580;2023-12-07T03:56:33;2.50;99.90
52030;DHT22;38043;53.224;6.580;2023-12-07T03:58:59;2.50;99.90
52030;DHT22;38043;53.224;6.580;2023-12-07T04:01:29;2.50;99.90
52030;DHT22;38043;53.224;6.580;2023-12-07T04:04:00;3.40;99.90
52030;DHT22;38043;53.224;6.580;2023-12-07T04:06:28;2.50;99.90
52030;DHT22;38043;53.224;6.580;2023-12-07T04:09:00;2.50;99.90
52030;DHT22;38043;53.224;6.580;2023-12-07T04:11:25;2.50;99.90
52030;DHT22;38043;53.224;6.580;2023-12-07T04:13:51;2.50;99.90
52030;DHT22;38043;53.224;6.580;2023-12-07T04:16:17;2.50;99.90
52030;DHT22;38043;53.224;6.580;2023-12-07T04:18:43;2.50;99.90
52030;DHT22;38043;53.224;6.580;2023-12-07T04:21:08;3.00;99.90
52030;DHT22;38043;53.224;6.580;2023-12-07T04:23:34;2.50;99.90
52030;DHT22;38043;53.224;6.580;2023-12-07T04:26:00;2.40;99.90
52030;DHT22;38043;53.224;6.580;2023-12-07T04:28:25;2.50;99.90
52030;DHT22;38043;53.224;6.580;2023-12-07T04:30:51;2.50;99.90
52030;DHT22;38043;53.224;6.580;2023-12-07T04:33:17;1.60;99.90
52030;DHT22;38043;53.224;6.580;2023-12-07T04:35:46;2.90;99.90
52030;DHT22;38043;53.224;6.580;2023-12-07T04:38:12;2.40;99.90
52030;DHT22;38043;53.224;6.580;2023-12-07T04:40:38;2.40;99.90
52030;DHT22;38043;53.224;6.580;2023-12-07T04:43:04;2.40;99.90
52030;DHT22;38043;53.224;6.580;2023-12-07T04:45:29;2.50;99.90
52030;DHT22;38043;53.224;6.580;2023-12-07T04:47:55;2.40;99.90
52030;DHT22;38043;53.224;6.580;2023-12-07T04:50:23;2.50;99.90
52030;DHT22;38043;53.224;6.580;2023-12-07T04:52:48;2.40;99.90
52030;DHT22;38043;53.224;6.580;2023-12-07T04:55:14;2.40;99.90
52030;DHT22;38043;53.224;6.580;2023-12-07T04:57:41;2.40;99.90
52030;DHT22;38043;53.224;6.580;2023-12-07T05:00:07;2.40;99.90
52030;DHT22;38043;53.224;6.580;2023-12-07T05:02:35;2.40;99.90
52030;DHT22;38043;53.224;6.580;2023-12-07T05:05:01;2.30;99.90
52030;DHT22;38043;53.224;6.580;2023-12-07T05:07:27;2.40;99.90
52030;DHT22;38043;53.224;6.580;2023-12-07T05:09:52;2.40;99.90
52030;DHT22;38043;53.224;6.580;2023-12-07T05:12:18;2.40;99.90
52030;DHT22;38043;53.224;6.580;2023-12-07T05:14:44;2.40;99.90
52030;DHT22;38043;53.224;6.580;2023-12-07T05:17:09;2.40;99.90
52030;DHT22;38043;53.224;6.580;2023-12-07T05:19:35;2.40;99.90
52030;DHT22;38043;53.224;6.580;2023-12-07T05:22:01;2.40;99.90
52030;DHT22;38043;53.224;6.580;2023-12-07T05:24:27;2.40;99.90
52030;DHT22;38043;53.224;6.580;2023-12-07T05:26:53;2.40;99.90
52030;DHT22;38043;53.224;6.580;2023-12-07T05:29:19;2.40;99.90
52030;DHT22;38043;53.224;6.580;2023-12-07T05:31:44;2.40;99.90
52030;DHT22;38043;53.224;6.580;2023-12-07T05:34:10;2.40;99.90
52030;DHT22;38043;53.224;6.580;2023-12-07T05:36:42;2.30;99.90
52030;DHT22;38043;53.224;6.580;2023-12-07T05:39:07;2.40;99.90
52030;DHT22;38043;53.224;6.580;2023-12-07T05:41:33;2.40;99.90
52030;DHT22;38043;53.224;6.580;2023-12-07T05:43:59;2.30;99.90
52030;DHT22;38043;53.224;6.580;2023-12-07T05:46:24;2.90;99.90
52030;DHT22;38043;53.224;6.580;2023-12-07T05:48:50;2.30;99.90
52030;DHT22;38043;53.224;6.580;2023-12-07T05:51:17;2.30;99.90
52030;DHT22;38043;53.224;6.580;2023-12-07T05:53:43;2.30;99.90
52030;DHT22;38043;53.224;6.580;2023-12-07T05:56:10;2.30;99.90
52030;DHT22;38043;53.224;6.580;2023-12-07T05:58:36;2.40;99.90
52030;DHT22;38043;53.224;6.580;2023-12-07T06:01:02;2.20;99.90
52030;DHT22;38043;53.224;6.580;2023-12-07T06:03:29;2.20;99.90
52030;DHT22;38043;53.224;6.580;2023-12-07T06:05:55;3.60;99.90
52030;DHT22;38043;53.224;6.580;2023-12-07T06:08:21;2.30;99.90
52030;DHT22;38043;53.224;6.580;2023-12-07T06:10:47;2.20;99.90
52030;DHT22;38043;53.224;6.580;2023-12-07T06:13:13;2.20;99.90
52030;DHT22;38043;53.224;6.580;2023-12-07T06:15:40;2.30;99.90
52030;DHT22;38043;53.224;6.580;2023-12-07T06:18:08;2.30;99.90
52030;DHT22;38043;53.224;6.580;2023-12-07T06:20:34;2.20;99.90
52030;DHT22;38043;53.224;6.580;2023-12-07T06:23:00;2.30;99.90
52030;DHT22;38043;53.224;6.580;2023-12-07T06:25:27;2.30;99.90
52030;DHT22;38043;53.224;6.580;2023-12-07T06:27:52;2.30;99.90
52030;DHT22;38043;53.224;6.580;2023-12-07T06:30:18;2.20;99.90
52030;DHT22;38043;53.224;6.580;2023-12-07T06:32:44;2.60;99.90
52030;DHT22;38043;53.224;6.580;2023-12-07T06:35:13;2.90;99.90
52030;DHT22;38043;53.224;6.580;2023-12-07T06:37:39;2.90;99.90
52030;DHT22;38043;53.224;6.580;2023-12-07T06:40:08;2.30;99.90
52030;DHT22;38043;53.224;6.580;2023-12-07T06:42:35;2.30;99.90
52030;DHT22;38043;53.224;6.580;2023-12-07T06:45:01;3.20;99.90
52030;DHT22;38043;53.224;6.580;2023-12-07T06:47:27;2.30;99.90
52030;DHT22;38043;53.224;6.580;2023-12-07T06:49:53;2.30;99.90
52030;DHT22;38043;53.224;6.580;2023-12-07T06:52:19;2.30;99.90
52030;DHT22;38043;53.224;6.580;2023-12-07T06:54:45;2.30;99.90
52030;DHT22;38043;53.224;6.580;2023-12-07T06:57:10;2.30;99.90
52030;DHT22;38043;53.224;6.580;2023-12-07T06:59:36;2.30;99.90
52030;DHT22;38043;53.224;6.580;2023-12-07T07:02:02;2.30;99.90
52030;DHT22;38043;53.224;6.580;2023-12-07T07:04:28;2.30;99.90
52030;DHT22;38043;53.224;6.580;2023-12-07T07:06:55;2.30;99.90
52030;DHT22;38043;53.224;6.580;2023-12-07T07:09:21;2.30;99.90
52030;DHT22;38043;53.224;6.580;2023-12-07T07:11:49;2.30;99.90
52030;DHT22;38043;53.224;6.580;2023-12-07T07:14:18;2.30;99.90
52030;DHT22;38043;53.224;6.580;2023-12-07T07:16:44;2.30;99.90
52030;DHT22;38043;53.224;6.580;2023-12-07T07:19:10;2.40;99.90
52030;DHT22;38043;53.224;6.580;2023-12-07T07:21:36;2.30;99.90
52030;DHT22;38043;53.224;6.580;2023-12-07T07:24:02;2.70;99.90
52030;DHT22;38043;53.224;6.580;2023-12-07T07:26:28;2.30;99.90
52030;DHT22;38043;53.224;6.580;2023-12-07T07:28:53;1.30;99.90
52030;DHT22;38043;53.224;6.580;2023-12-07T07:31:19;2.40;99.90
52030;DHT22;38043;53.224;6.580;2023-12-07T07:33:45;2.40;99.90
52030;DHT22;38043;53.224;6.580;2023-12-07T07:36:14;2.40;99.90
52030;DHT22;38043;53.224;6.580;2023-12-07T07:38:43;2.40;99.90
52030;DHT22;38043;53.224;6.580;2023-12-07T07:41:10;2.50;99.90
52030;DHT22;38043;53.224;6.580;2023-12-07T07:43:36;2.50;99.90
52030;DHT22;38043;53.224;6.580;2023-12-07T07:46:03;2.50;99.90
52030;DHT22;38043;53.224;6.580;2023-12-07T07:48:30;2.50;99.90
52030;DHT22;38043;53.224;6.580;2023-12-07T07:50:55;2.50;99.90
52030;DHT22;38043;53.224;6.580;2023-12-07T07:53:22;2.50;99.90
52030;DHT22;38043;53.224;6.580;2023-12-07T07:55:51;2.60;99.90
52030;DHT22;38043;53.224;6.580;2023-12-07T07:58:19;2.60;99.90
52030;DHT22;38043;53.224;6.580;2023-12-07T08:00:45;2.60;99.90
52030;DHT22;38043;53.224;6.580;2023-12-07T08:03:12;2.60;99.90
52030;DHT22;38043;53.224;6.580;2023-12-07T08:05:38;2.60;99.90
52030;DHT22;38043;53.224;6.580;2023-12-07T08:08:04;2.60;99.90
52030;DHT22;38043;53.224;6.580;2023-12-07T08:10:30;2.60;99.90
52030;DHT22;38043;53.224;6.580;2023-12-07T08:12:56;2.60;99.90
52030;DHT22;38043;53.224;6.580;2023-12-07T08:15:22;2.60;99.90
52030;DHT22;38043;53.224;6.580;2023-12-07T08:17:47;2.80;99.90
52030;DHT22;38043;53.224;6.580;2023-12-07T08:20:13;2.70;99.90
52030;DHT22;38043;53.224;6.580;2023-12-07T08:22:40;2.70;99.90
52030;DHT22;38043;53.224;6.580;2023-12-07T08:25:11;2.70;99.90
52030;DHT22;38043;53.224;6.580;2023-12-07T08:27:38;2.70;99.90
52030;DHT22;38043;53.224;6.580;2023-12-07T08:30:07;3.80;99.90
52030;DHT22;38043;53.224;6.580;2023-12-07T08:32:35;2.80;99.90
52030;DHT22;38043;53.224;6.580;2023-12-07T08:35:00;2.90;99.90
52030;DHT22;38043;53.224;6.580;2023-12-07T08:37:26;3.60;99.90
52030;DHT22;38043;53.224;6.580;2023-12-07T08:39:51;2.90;99.90
52030;DHT22;38043;53.224;6.580;2023-12-07T08:42:17;2.90;99.90
52030;DHT22;38043;53.224;6.580;2023-12-07T08:44:43;2.90;99.90
52030;DHT22;38043;53.224;6.580;2023-12-07T08:47:13;2.80;99.90
52030;DHT22;38043;53.224;6.580;2023-12-07T08:49:38;2.80;99.90
52030;DHT22;38043;53.224;6.580;2023-12-07T08:52:04;2.90;99.90
52030;DHT22;38043;53.224;6.580;2023-12-07T08:54:30;3.90;99.90
52030;DHT22;38043;53.224;6.580;2023-12-07T08:56:55;3.00;99.90
52030;DHT22;38043;53.224;6.580;2023-12-07T08:59:21;3.00;99.90
52030;DHT22;38043;53.224;6.580;2023-12-07T09:01:47;3.00;99.90
52030;DHT22;38043;53.224;6.580;2023-12-07T09:04:12;3.00;99.90
52030;DHT22;38043;53.224;6.580;2023-12-07T09:06:38;3.00;99.90
52030;DHT22;38043;53.224;6.580;2023-12-07T09:09:04;3.10;99.90
52030;DHT22;38043;53.224;6.580;2023-12-07T09:11:30;4.20;99.90
52030;DHT22;38043;53.224;6.580;2023-12-07T09:13:56;3.30;99.90
52030;DHT22;38043;53.224;6.580;2023-12-07T09:16:22;3.40;99.90
52030;DHT22;38043;53.224;6.580;2023-12-07T09:18:48;3.40;99.90
52030;DHT22;38043;53.224;6.580;2023-12-07T09:21:13;3.60;99.90
52030;DHT22;38043;53.224;6.580;2023-12-07T09:23:39;3.70;99.90
52030;DHT22;38043;53.224;6.580;2023-12-07T09:26:08;4.10;99.90
52030;DHT22;38043;53.224;6.580;2023-12-07T09:28:34;4.30;99.90
52030;DHT22;38043;53.224;6.580;2023-12-07T09:31:00;4.20;99.90
52030;DHT22;38043;53.224;6.580;2023-12-07T09:33:25;4.30;99.90
52030;DHT22;38043;53.224;6.580;2023-12-07T09:35:51;4.40;99.90
52030;DHT22;38043;53.224;6.580;2023-12-07T09:38:20;4.60;99.90
52030;DHT22;38043;53.224;6.580;2023-12-07T09:40:46;4.70;99.90
52030;DHT22;38043;53.224;6.580;2023-12-07T09:43:13;4.80;99.90
52030;DHT22;38043;53.224;6.580;2023-12-07T09:45:41;5.70;99.90
52030;DHT22;38043;53.224;6.580;2023-12-07T09:48:09;4.70;99.90
52030;DHT22;38043;53.224;6.580;2023-12-07T09:50:39;4.60;99.90
52030;DHT22;38043;53.224;6.580;2023-12-07T09:53:08;4.60;99.90
52030;DHT22;38043;53.224;6.580;2023-12-07T09:55:35;4.50;99.90
52030;DHT22;38043;53.224;6.580;2023-12-07T09:58:03;4.40;99.90
52030;DHT22;38043;53.224;6.580;2023-12-07T10:00:30;4.20;99.90
52030;DHT22;38043;53.224;6.580;2023-12-07T10:02:55;4.10;99.90
52030;DHT22;38043;53.224;6.580;2023-12-07T10:05:21;3.90;99.90
52030;DHT22;38043;53.224;6.580;2023-12-07T10:07:49;3.70;99.90
52030;DHT22;38043;53.224;6.580;2023-12-07T10:10:16;3.60;99.90
52030;DHT22;38043;53.224;6.580;2023-12-07T10:12:53;3.50;99.90
52030;DHT22;38043;53.224;6.580;2023-12-07T10:15:20;4.50;99.90
52030;DHT22;38043;53.224;6.580;2023-12-07T10:17:54;3.30;99.90
52030;DHT22;38043;53.224;6.580;2023-12-07T10:20:25;3.20;99.90
52030;DHT22;38043;53.224;6.580;2023-12-07T10:23:04;3.70;99.90
52030;DHT22;38043;53.224;6.580;2023-12-07T10:25:31;3.10;99.90
52030;DHT22;38043;53.224;6.580;2023-12-07T10:28:00;3.10;99.90
52030;DHT22;38043;53.224;6.580;2023-12-07T10:30:27;3.00;99.90
52030;DHT22;38043;53.224;6.580;2023-12-07T10:32:52;2.70;99.90
52030;DHT22;38043;53.224;6.580;2023-12-07T10:35:19;2.90;99.90
52030;DHT22;38043;53.224;6.580;2023-12-07T10:37:46;2.90;99.90
52030;DHT22;38043;53.224;6.580;2023-12-07T10:40:12;2.80;99.90
52030;DHT22;38043;53.224;6.580;2023-12-07T10:42:41;2.90;99.90
52030;DHT22;38043;53.224;6.580;2023-12-07T10:45:07;2.90;99.90
52030;DHT22;38043;53.224;6.580;2023-12-07T10:47:38;2.90;99.90
52030;DHT22;38043;53.224;6.580;2023-12-07T10:50:08;2.90;99.90
52030;DHT22;38043;53.224;6.580;2023-12-07T10:52:41;2.90;99.90
52030;DHT22;38043;53.224;6.580;2023-12-07T10:55:30;2.90;99.90
52030;DHT22;38043;53.224;6.580;2023-12-07T10:57:58;2.40;99.90
52030;DHT22;38043;53.224;6.580;2023-12-07T11:00:25;3.10;99.90
52030;DHT22;38043;53.224;6.580;2023-12-07T11:02:54;3.00;99.90
52030;DHT22;38043;53.224;6.580;2023-12-07T11:05:20;3.00;99.90
52030;DHT22;38043;53.224;6.580;2023-12-07T11:07:59;3.00;99.90
52030;DHT22;38043;53.224;6.580;2023-12-07T11:10:43;3.00;99.90
52030;DHT22;38043;53.224;6.580;2023-12-07T11:15:36;3.00;99.90
52030;DHT22;38043;53.224;6.580;2023-12-07T11:18:02;3.00;99.90
52030;DHT22;38043;53.224;6.580;2023-12-07T11:20:40;3.40;99.90
52030;DHT22;38043;53.224;6.580;2023-12-07T11:23:16;3.10;99.90
52030;DHT22;38043;53.224;6.580;2023-12-07T11:25:49;3.10;99.90
52030;DHT22;38043;53.224;6.580;2023-12-07T11:28:16;3.10;99.90
52030;DHT22;38043;53.224;6.580;2023-12-07T11:30:44;3.10;99.90
52030;DHT22;38043;53.224;6.580;2023-12-07T11:33:10;4.10;99.90
52030;DHT22;38043;53.224;6.580;2023-12-07T11:38:28;3.20;99.90
52030;DHT22;38043;53.224;6.580;2023-12-07T11:40:54;3.20;99.90
52030;DHT22;38043;53.224;6.580;2023-12-07T11:43:44;3.90;99.90
52030;DHT22;38043;53.224;6.580;2023-12-07T11:46:12;3.20;99.90
52030;DHT22;38043;53.224;6.580;2023-12-07T11:48:43;4.60;99.90
52030;DHT22;38043;53.224;6.580;2023-12-07T11:51:12;3.20;99.90
52030;DHT22;38043;53.224;6.580;2023-12-07T11:53:39;3.20;99.90
52030;DHT22;38043;53.224;6.580;2023-12-07T11:56:06;4.20;99.90
52030;DHT22;38043;53.224;6.580;2023-12-07T11:58:35;3.20;99.90
52030;DHT22;38043;53.224;6.580;2023-12-07T12:01:04;3.20;99.90
52030;DHT22;38043;53.224;6.580;2023-12-07T12:03:31;3.70;99.90
52030;DHT22;38043;53.224;6.580;2023-12-07T12:05:58;3.30;99.90
52030;DHT22;38043;53.224;6.580;2023-12-07T12:08:23;3.20;99.90
52030;DHT22;38043;53.224;6.580;2023-12-07T12:10:50;3.30;99.90
52030;DHT22;38043;53.224;6.580;2023-12-07T12:13:18;3.30;99.90
52030;DHT22;38043;53.224;6.580;2023-12-07T12:15:45;3.30;99.90
52030;DHT22;38043;53.224;6.580;2023-12-07T12:18:12;3.30;99.90
52030;DHT22;38043;53.224;6.580;2023-12-07T12:20:39;3.40;99.90
52030;DHT22;38043;53.224;6.580;2023-12-07T12:23:05;3.40;99.90
52030;DHT22;38043;53.224;6.580;2023-12-07T12:25:32;3.40;99.90
52030;DHT22;38043;53.224;6.580;2023-12-07T12:28:02;3.40;99.90
52030;DHT22;38043;53.224;6.580;2023-12-07T12:30:33;4.40;99.90
52030;DHT22;38043;53.224;6.580;2023-12-07T12:33:00;3.40;99.90
52030;DHT22;38043;53.224;6.580;2023-12-07T12:35:26;3.30;99.90
52030;DHT22;38043;53.224;6.580;2023-12-07T12:37:52;3.40;99.90
52030;DHT22;38043;53.224;6.580;2023-12-07T12:40:19;3.40;99.90
52030;DHT22;38043;53.224;6.580;2023-12-07T12:42:51;3.30;99.90
52030;DHT22;38043;53.224;6.580;2023-12-07T12:45:17;4.30;99.90
52030;DHT22;38043;53.224;6.580;2023-12-07T12:47:47;3.20;99.90
52030;DHT22;38043;53.224;6.580;2023-12-07T12:50:34;3.60;99.90
52030;DHT22;38043;53.224;6.580;2023-12-07T12:53:03;3.00;99.90
52030;DHT22;38043;53.224;6.580;2023-12-07T12:55:36;3.00;99.90
52030;DHT22;38043;53.224;6.580;2023-12-07T12:58:02;2.90;99.90
52030;DHT22;38043;53.224;6.580;2023-12-07T13:00:31;2.80;99.90
52030;DHT22;38043;53.224;6.580;2023-12-07T13:03:00;3.60;99.90
52030;DHT22;38043;53.224;6.580;2023-12-07T13:05:27;2.70;99.90
52030;DHT22;38043;53.224;6.580;2023-12-07T13:07:53;2.60;99.90
52030;DHT22;38043;53.224;6.580;2023-12-07T13:10:21;2.50;99.90
52030;DHT22;38043;53.224;6.580;2023-12-07T13:12:47;2.40;99.90
52030;DHT22;38043;53.224;6.580;2023-12-07T13:15:13;2.40;99.90
52030;DHT22;38043;53.224;6.580;2023-12-07T13:17:40;2.30;99.90
52030;DHT22;38043;53.224;6.580;2023-12-07T13:20:07;2.30;99.90
52030;DHT22;38043;53.224;6.580;2023-12-07T13:22:37;2.30;99.90
52030;DHT22;38043;53.224;6.580;2023-12-07T13:25:03;2.20;99.90
52030;DHT22;38043;53.224;6.580;2023-12-07T13:27:29;2.20;99.90
52030;DHT22;38043;53.224;6.580;2023-12-07T13:29:55;2.20;99.90
52030;DHT22;38043;53.224;6.580;2023-12-07T13:32:20;2.10;99.90
52030;DHT22;38043;53.224;6.580;2023-12-07T13:34:46;2.10;99.90
52030;DHT22;38043;53.224;6.580;2023-12-07T13:37:11;2.00;99.90
52030;DHT22;38043;53.224;6.580;2023-12-07T13:39:38;2.00;99.90
52030;DHT22;38043;53.224;6.580;2023-12-07T13:42:04;1.90;99.90
52030;DHT22;38043;53.224;6.580;2023-12-07T13:44:30;1.80;99.90
52030;DHT22;38043;53.224;6.580;2023-12-07T13:46:58;1.80;99.90
52030;DHT22;38043;53.224;6.580;2023-12-07T13:49:26;2.50;99.90
52030;DHT22;38043;53.224;6.580;2023-12-07T13:51:53;1.70;99.90
52030;DHT22;38043;53.224;6.580;2023-12-07T13:54:18;1.70;99.90
52030;DHT22;38043;53.224;6.580;2023-12-07T13:56:44;1.20;99.90
52030;DHT22;38043;53.224;6.580;2023-12-07T13:59:10;1.70;99.90
52030;DHT22;38043;53.224;6.580;2023-12-07T14:01:40;1.60;99.90
52030;DHT22;38043;53.224;6.580;2023-12-07T14:04:06;1.40;99.90
52030;DHT22;38043;53.224;6.580;2023-12-07T14:06:33;1.50;99.90
52030;DHT22;38043;53.224;6.580;2023-12-07T14:09:01;1.50;99.90
52030;DHT22;38043;53.224;6.580;2023-12-07T14:11:26;1.40;99.90
52030;DHT22;38043;53.224;6.580;2023-12-07T14:13:52;1.40;99.90
52030;DHT22;38043;53.224;6.580;2023-12-07T14:16:22;1.40;99.90
52030;DHT22;38043;53.224;6.580;2023-12-07T14:18:48;1.40;99.90
52030;DHT22;38043;53.224;6.580;2023-12-07T14:21:19;1.30;99.90
52030;DHT22;38043;53.224;6.580;2023-12-07T14:23:47;1.30;99.90
52030;DHT22;38043;53.224;6.580;2023-12-07T14:26:13;1.30;99.90
52030;DHT22;38043;53.224;6.580;2023-12-07T14:28:38;1.30;99.90
52030;DHT22;38043;53.224;6.580;2023-12-07T14:31:04;1.40;99.90
52030;DHT22;38043;53.224;6.580;2023-12-07T14:33:32;1.40;99.90
52030;DHT22;38043;53.224;6.580;2023-12-07T14:36:00;1.40;99.90
52030;DHT22;38043;53.224;6.580;2023-12-07T14:38:25;1.30;99.90
52030;DHT22;38043;53.224;6.580;2023-12-07T14:40:51;2.20;99.90
52030;DHT22;38043;53.224;6.580;2023-12-07T14:43:17;1.30;99.90
52030;DHT22;38043;53.224;6.580;2023-12-07T14:45:43;1.30;99.90
52030;DHT22;38043;53.224;6.580;2023-12-07T14:48:09;1.30;99.90
52030;DHT22;38043;53.224;6.580;2023-12-07T14:50:35;1.30;99.90
52030;DHT22;38043;53.224;6.580;2023-12-07T14:53:00;1.30;99.90
52030;DHT22;38043;53.224;6.580;2023-12-07T14:55:26;1.20;99.90
52030;DHT22;38043;53.224;6.580;2023-12-07T14:57:52;1.20;99.90
52030;DHT22;38043;53.224;6.580;2023-12-07T15:00:21;1.30;99.90
52030;DHT22;38043;53.224;6.580;2023-12-07T15:02:46;1.30;99.90
52030;DHT22;38043;53.224;6.580;2023-12-07T15:05:12;1.70;99.90
52030;DHT22;38043;53.224;6.580;2023-12-07T15:07:38;1.60;99.90
52030;DHT22;38043;53.224;6.580;2023-12-07T15:10:07;2.80;99.90
52030;DHT22;38043;53.224;6.580;2023-12-07T15:12:33;0.60;99.90
52030;DHT22;38043;53.224;6.580;2023-12-07T15:15:02;1.00;99.90
52030;DHT22;38043;53.224;6.580;2023-12-07T15:17:31;1.40;99.90
52030;DHT22;38043;53.224;6.580;2023-12-07T15:20:00;3.00;99.90
52030;DHT22;38043;53.224;6.580;2023-12-07T15:22:28;2.80;99.90
52030;DHT22;38043;53.224;6.580;2023-12-07T15:24:54;1.20;99.90
52030;DHT22;38043;53.224;6.580;2023-12-07T15:27:22;1.30;99.90
52030;DHT22;38043;53.224;6.580;2023-12-07T15:29:50;2.40;99.90
52030;DHT22;38043;53.224;6.580;2023-12-07T15:32:18;0.30;99.90
52030;DHT22;38043;53.224;6.580;2023-12-07T15:34:47;1.40;99.90
52030;DHT22;38043;53.224;6.580;2023-12-07T15:37:13;1.30;99.90
52030;DHT22;38043;53.224;6.580;2023-12-07T15:39:40;1.40;99.90
52030;DHT22;38043;53.224;6.580;2023-12-07T15:42:09;1.40;99.90
52030;DHT22;38043;53.224;6.580;2023-12-07T15:44:43;2.50;99.90
52030;DHT22;38043;53.224;6.580;2023-12-07T15:47:09;1.60;99.90
52030;DHT22;38043;53.224;6.580;2023-12-07T15:49:35;3.30;99.90